^^
Your Local Weather - Clay, NY Station Historical Data
Daily Summary for August 12, 2017 Units:  English    Metric   Both
« Previous Day
Next Day »
Daily Weekly Monthly Yearly Custom
  High: Low: Average:
Temperature: 81.2 °F 64.2 °F 70.6 °F
Dew Point: 69.3 °F 60.9 °F 63.6 °F
Humidity: 93% 57% 80%
Wind Speed: 6.0mph 0.0mph 0.9mph
Wind Gust: 10.0mph - -
Wind- - WSW
Pressure: 29.86 in 29.75 in -
Precipitation: 0.17 in    
Historical Graphs
 
 
Tabular Data for August 12, 2017
Time Temperature Dew Point Pressure Wind Wind Speed Wind Gust Humidity Rainfall Rate (Hourly) solar
00:00 69.7 °F 63.3 °F 29.86 in SSW 1.0 mph 2.0 mph 80% 0.00 in 0 W/m2
00:06 69.5 °F 63.1 °F 29.86 in South 1.0 mph 2.0 mph 80% 0.00 in 0 W/m2
00:12 69.4 °F 63.0 °F 29.86 in South 1.0 mph 1.0 mph 80% 0.00 in 0 W/m2
00:18 69.1 °F 62.7 °F 29.85 in South 1.0 mph 1.0 mph 80% 0.00 in 0 W/m2
00:24 68.8 °F 62.7 °F 29.85 in South 1.0 mph 1.0 mph 81% 0.00 in 0 W/m2
00:30 68.6 °F 62.5 °F 29.86 in South 1.0 mph 1.0 mph 81% 0.00 in 0 W/m2
00:36 68.7 °F 62.6 °F 29.86 in South 1.0 mph 3.0 mph 81% 0.00 in 0 W/m2
00:42 68.8 °F 62.4 °F 29.86 in SSW 2.0 mph 2.0 mph 80% 0.00 in 0 W/m2
00:48 69.0 °F 62.6 °F 29.86 in South 2.0 mph 3.0 mph 80% 0.00 in 0 W/m2
00:54 69.1 °F 62.7 °F 29.85 in SSW 3.0 mph 4.0 mph 80% 0.00 in 0 W/m2
01:00 69.0 °F 62.6 °F 29.85 in SSW 2.0 mph 2.0 mph 80% 0.00 in 0 W/m2
01:06 69.0 °F 62.6 °F 29.85 in South 3.0 mph 4.0 mph 80% 0.00 in 0 W/m2
01:12 68.8 °F 62.4 °F 29.85 in South 2.0 mph 3.0 mph 80% 0.00 in 0 W/m2
01:18 68.6 °F 62.2 °F 29.85 in South 2.0 mph 3.0 mph 80% 0.00 in 0 W/m2
01:24 68.4 °F 62.0 °F 29.85 in South 2.0 mph 4.0 mph 80% 0.00 in 0 W/m2
01:30 68.2 °F 62.1 °F 29.85 in South 1.0 mph 1.0 mph 81% 0.00 in 0 W/m2
01:36 67.9 °F 62.2 °F 29.85 in Calm   1.0 mph 82% 0.00 in 0 W/m2
01:42 67.3 °F 61.6 °F 29.85 in Calm   2.0 mph 82% 0.00 in 0 W/m2
01:48 67.0 °F 61.7 °F 29.85 in South 1.0 mph 2.0 mph 83% 0.00 in 0 W/m2
01:54 66.5 °F 61.5 °F 29.85 in Calm   1.0 mph 84% 0.00 in 0 W/m2
02:00 66.0 °F 61.4 °F 29.85 in Calm     85% 0.00 in 0 W/m2
02:06 65.5 °F 61.2 °F 29.85 in Calm     86% 0.00 in 0 W/m2
02:12 65.1 °F 61.1 °F 29.85 in Calm     87% 0.00 in 0 W/m2
02:18 64.7 °F 61.1 °F 29.84 in Calm     88% 0.00 in 0 W/m2
02:24 64.5 °F 60.9 °F 29.84 in Calm     88% 0.00 in 0 W/m2
02:30 64.4 °F 61.1 °F 29.84 in Calm     89% 0.00 in 0 W/m2
02:36 64.4 °F 61.1 °F 29.84 in Calm   2.0 mph 89% 0.00 in 0 W/m2
02:42 65.3 °F 62.0 °F 29.84 in SSW 1.0 mph 4.0 mph 89% 0.00 in 0 W/m2
02:50 66.1 °F 62.4 °F 29.84 in SSE 2.0 mph 2.0 mph 88% 0.00 in 0 W/m2
02:56 66.5 °F 62.2 °F 29.84 in South 1.0 mph 3.0 mph 86% 0.00 in 0 W/m2
03:02 66.6 °F 62.3 °F 29.84 in South 1.0 mph 1.0 mph 86% 0.00 in 0 W/m2
03:08 66.5 °F 61.8 °F 29.84 in Calm   1.0 mph 85% 0.00 in 0 W/m2
03:14 66.3 °F 61.7 °F 29.83 in Calm     85% 0.00 in 0 W/m2
03:20 66.0 °F 61.7 °F 29.84 in Calm     86% 0.00 in 0 W/m2
03:26 65.7 °F 61.4 °F 29.84 in Calm   1.0 mph 86% 0.00 in 0 W/m2
03:32 65.2 °F 61.2 °F 29.83 in Calm     87% 0.00 in 0 W/m2
03:38 64.8 °F 61.2 °F 29.83 in Calm     88% 0.00 in 0 W/m2
03:44 64.6 °F 61.0 °F 29.83 in Calm     88% 0.00 in 0 W/m2
03:50 64.6 °F 61.3 °F 29.83 in Calm     89% 0.00 in 0 W/m2
03:56 64.6 °F 61.3 °F 29.83 in Calm   1.0 mph 89% 0.00 in 0 W/m2
04:02 64.9 °F 61.6 °F 29.82 in SSE 1.0 mph 2.0 mph 89% 0.00 in 0 W/m2
04:08 65.2 °F 61.9 °F 29.82 in SSE 1.0 mph 3.0 mph 89% 0.00 in 0 W/m2
04:14 65.7 °F 62.4 °F 29.82 in SSE 2.0 mph 4.0 mph 89% 0.00 in 0 W/m2
04:20 65.9 °F 62.2 °F 29.82 in South 2.0 mph 3.0 mph 88% 0.00 in 0 W/m2
04:26 66.2 °F 62.2 °F 29.82 in South 1.0 mph 3.0 mph 87% 0.00 in 0 W/m2
04:32 66.5 °F 62.5 °F 29.82 in SSE 1.0 mph 1.0 mph 87% 0.00 in 0 W/m2
04:38 66.1 °F 62.1 °F 29.82 in Calm   1.0 mph 87% 0.00 in 0 W/m2
04:44 65.9 °F 61.9 °F 29.82 in Calm     87% 0.00 in 0 W/m2
04:50 65.3 °F 61.3 °F 29.82 in Calm     87% 0.00 in 0 W/m2
04:56 65.0 °F 61.4 °F 29.82 in Calm     88% 0.00 in 0 W/m2
05:02 64.8 °F 61.2 °F 29.82 in Calm     88% 0.00 in 0 W/m2
05:08 64.5 °F 61.2 °F 29.82 in Calm     89% 0.00 in 0 W/m2
05:14 64.4 °F 61.1 °F 29.82 in Calm   1.0 mph 89% 0.00 in 0 W/m2
05:20 64.6 °F 61.6 °F 29.82 in Calm     90% 0.00 in 0 W/m2
05:26 64.9 °F 61.9 °F 29.82 in Calm     90% 0.00 in 0 W/m2
05:32 65.0 °F 62.0 °F 29.82 in Calm     90% 0.00 in 0 W/m2
05:38 65.0 °F 62.0 °F 29.82 in Calm     90% 0.00 in 0 W/m2
05:44 64.8 °F 61.5 °F 29.82 in Calm     89% 0.00 in 0 W/m2
05:50 64.7 °F 61.7 °F 29.82 in Calm     90% 0.00 in 0 W/m2
05:56 64.5 °F 61.5 °F 29.82 in Calm     90% 0.00 in 0 W/m2
06:02 64.4 °F 61.4 °F 29.82 in Calm     90% 0.00 in 0 W/m2
06:08 64.3 °F 61.3 °F 29.82 in Calm     90% 0.00 in 0 W/m2
06:14 64.3 °F 61.3 °F 29.82 in Calm     90% 0.00 in 5 W/m2
06:20 64.2 °F 61.5 °F 29.82 in Calm     91% 0.00 in 7 W/m2
06:26 64.2 °F 61.5 °F 29.83 in Calm     91% 0.00 in 11 W/m2
06:32 64.3 °F 61.6 °F 29.83 in Calm     91% 0.00 in 16 W/m2
06:38 64.4 °F 61.7 °F 29.83 in Calm     91% 0.00 in 21 W/m2
06:44 64.4 °F 61.7 °F 29.83 in Calm     91% 0.00 in 28 W/m2
06:50 64.5 °F 61.8 °F 29.83 in Calm     91% 0.00 in 32 W/m2
06:56 64.5 °F 61.8 °F 29.83 in Calm     91% 0.00 in 33 W/m2
07:02 64.6 °F 61.9 °F 29.83 in Calm     91% 0.00 in 79 W/m2
07:08 64.8 °F 62.1 °F 29.83 in Calm     91% 0.00 in 37 W/m2
07:14 64.8 °F 62.1 °F 29.83 in Calm     91% 0.00 in 47 W/m2
07:20 64.9 °F 62.2 °F 29.83 in Calm     91% 0.00 in 114 W/m2
07:26 65.5 °F 63.1 °F 29.83 in Calm     92% 0.00 in 128 W/m2
07:32 66.0 °F 63.3 °F 29.83 in Calm     91% 0.00 in 116 W/m2
07:38 66.5 °F 63.8 °F 29.83 in Calm     91% 0.00 in 163 W/m2
07:44 67.1 °F 64.4 °F 29.83 in Calm     91% 0.00 in 174 W/m2
07:50 67.8 °F 64.4 °F 29.83 in Calm     89% 0.00 in 190 W/m2
07:56 68.3 °F 64.3 °F 29.83 in Calm     87% 0.00 in 93 W/m2
08:02 68.7 °F 64.3 °F 29.83 in SSW 1.0 mph 3.0 mph 86% 0.00 in 109 W/m2
08:08 69.0 °F 64.3 °F 29.83 in SSW 1.0 mph 3.0 mph 85% 0.00 in 125 W/m2
08:14 69.2 °F 64.2 °F 29.83 in SSW 1.0 mph 1.0 mph 84% 0.00 in 130 W/m2
08:20 69.7 °F 64.6 °F 29.83 in SW 1.0 mph 1.0 mph 84% 0.00 in 137 W/m2
08:26 70.1 °F 64.7 °F 29.83 in SW 1.0 mph 5.0 mph 83% 0.00 in 114 W/m2
08:32 70.8 °F 64.7 °F 29.83 in SW 1.0 mph 3.0 mph 81% 0.00 in 111 W/m2
08:38 71.3 °F 64.4 °F 29.83 in WSW 1.0 mph 3.0 mph 79% 0.00 in 121 W/m2
08:44 71.6 °F 64.4 °F 29.83 in West 2.0 mph 3.0 mph 78% 0.00 in 339 W/m2
08:50 72.1 °F 65.2 °F 29.82 in WSW 2.0 mph 2.0 mph 79% 0.00 in 200 W/m2
08:56 72.4 °F 64.4 °F 29.82 in SSE 2.0 mph 3.0 mph 76% 0.00 in 142 W/m2
09:02 72.7 °F 65.1 °F 29.82 in WSW 2.0 mph 2.0 mph 77% 0.00 in 135 W/m2
09:08 72.9 °F 64.9 °F 29.82 in SSW 1.0 mph 3.0 mph 76% 0.00 in 450 W/m2
09:14 73.1 °F 64.7 °F 29.82 in SW 2.0 mph 4.0 mph 75% 0.00 in 483 W/m2
09:20 73.3 °F 64.5 °F 29.82 in West 3.0 mph 3.0 mph 74% 0.00 in 485 W/m2
09:26 73.4 °F 64.2 °F 29.82 in WSW 2.0 mph 4.0 mph 73% 0.00 in 223 W/m2
09:32 73.0 °F 63.8 °F 29.82 in West 4.0 mph 4.0 mph 73% 0.00 in 202 W/m2
09:38 73.4 °F 64.6 °F 29.82 in WSW 3.0 mph 5.0 mph 74% 0.00 in 585 W/m2
09:44 74.0 °F 65.2 °F 29.82 in WNW 3.0 mph 5.0 mph 74% 0.00 in 598 W/m2
09:50 74.3 °F 64.3 °F 29.82 in SSW 3.0 mph 3.0 mph 71% 0.00 in 162 W/m2
09:56 74.1 °F 64.9 °F 29.82 in WSW 2.0 mph 3.0 mph 73% 0.00 in 267 W/m2
10:02 74.8 °F 66.0 °F 29.82 in WSW 1.0 mph 2.0 mph 74% 0.00 in 722 W/m2
10:08 75.3 °F 64.8 °F 29.82 in South 2.0 mph 2.0 mph 70% 0.00 in 322 W/m2
10:14 75.4 °F 65.3 °F 29.82 in SW 1.0 mph 2.0 mph 71% 0.00 in 271 W/m2
10:20 75.6 °F 65.1 °F 29.82 in SW 1.0 mph 2.0 mph 70% 0.00 in 299 W/m2
10:26 74.7 °F 64.3 °F 29.82 in SW 2.0 mph 4.0 mph 70% 0.00 in 271 W/m2
10:32 74.7 °F 64.7 °F 29.82 in SSW 3.0 mph 3.0 mph 71% 0.00 in 533 W/m2
10:38 76.1 °F 65.6 °F 29.82 in West 1.0 mph 3.0 mph 70% 0.00 in 766 W/m2
10:44 75.8 °F 64.9 °F 29.82 in SSW 1.0 mph 2.0 mph 69% 0.00 in 186 W/m2
10:50 76.1 °F 66.0 °F 29.82 in WSW 1.0 mph 2.0 mph 71% 0.00 in 216 W/m2
10:56 75.6 °F 65.1 °F 29.82 in West 2.0 mph 4.0 mph 70% 0.00 in 343 W/m2
11:02 75.4 °F 64.5 °F 29.82 in SW 2.0 mph 3.0 mph 69% 0.00 in 838 W/m2
11:08 76.0 °F 64.2 °F 29.82 in SW 2.0 mph 6.0 mph 67% 0.00 in 846 W/m2
11:14 76.1 °F 66.4 °F 29.81 in SW 2.0 mph 2.0 mph 72% 0.00 in 840 W/m2
11:20 77.4 °F 67.3 °F 29.82 in West 1.0 mph 1.0 mph 71% 0.00 in 879 W/m2
11:26 77.7 °F 65.4 °F 29.82 in SW 2.0 mph 3.0 mph 66% 0.00 in 257 W/m2
11:32 76.6 °F 65.7 °F 29.82 in SW 2.0 mph 2.0 mph 69% 0.00 in 912 W/m2
11:38 76.5 °F 64.7 °F 29.81 in SW 2.0 mph 4.0 mph 67% 0.00 in 202 W/m2
11:44 76.3 °F 65.4 °F 29.81 in SW 2.0 mph 3.0 mph 69% 0.00 in 889 W/m2
11:50 77.0 °F 64.8 °F 29.81 in WSW 2.0 mph 5.0 mph 66% 0.00 in 276 W/m2
11:56 76.8 °F 65.4 °F 29.81 in SW 2.0 mph 5.0 mph 68% 0.00 in 928 W/m2
12:02 76.9 °F 64.2 °F 29.81 in SSW 3.0 mph 3.0 mph 65% 0.00 in 279 W/m2
12:08 77.3 °F 64.6 °F 29.81 in WSW 2.0 mph 3.0 mph 65% 0.00 in 250 W/m2
12:14 78.9 °F 66.6 °F 29.81 in SSW 1.0 mph 5.0 mph 66% 0.00 in 969 W/m2
12:20 78.1 °F 64.5 °F 29.80 in West 2.0 mph 3.0 mph 63% 0.00 in 320 W/m2
12:26 77.7 °F 64.1 °F 29.80 in WSW 2.0 mph 6.0 mph 63% 0.00 in 1056 W/m2
12:32 77.7 °F 65.0 °F 29.80 in SW 2.0 mph 3.0 mph 65% 0.00 in 327 W/m2
12:38 77.7 °F 65.0 °F 29.80 in WSW 1.0 mph 4.0 mph 65% 0.00 in 304 W/m2
12:44 78.0 °F 66.2 °F 29.79 in SSW 2.0 mph 3.0 mph 67% 0.00 in 867 W/m2
12:50 78.4 °F 64.8 °F 29.79 in WSW 2.0 mph 5.0 mph 63% 0.00 in 891 W/m2
12:56 79.6 °F 67.2 °F 29.79 in SW 2.0 mph 5.0 mph 66% 0.00 in 882 W/m2
13:02 79.5 °F 66.7 °F 29.78 in WSW 1.0 mph 3.0 mph 65% 0.00 in 925 W/m2
13:08 80.0 °F 66.3 °F 29.78 in SSW 1.0 mph 5.0 mph 63% 0.00 in 997 W/m2
13:14 79.9 °F 64.8 °F 29.78 in SW 2.0 mph 2.0 mph 60% 0.00 in 1009 W/m2
13:20 79.8 °F 66.1 °F 29.78 in WSW 2.0 mph 2.0 mph 63% 0.00 in 918 W/m2
13:26 79.7 °F 66.0 °F 29.77 in WNW 2.0 mph 4.0 mph 63% 0.00 in 925 W/m2
13:32 80.9 °F 69.3 °F 29.78 in WNW 1.0 mph 1.0 mph 68% 0.00 in 1004 W/m2
13:38 81.1 °F 64.4 °F 29.77 in WSW 1.0 mph 3.0 mph 57% 0.00 in 332 W/m2
13:44 79.6 °F 65.9 °F 29.78 in SW 2.0 mph 3.0 mph 63% 0.00 in 984 W/m2
13:50 80.5 °F 66.3 °F 29.77 in SW 3.0 mph 4.0 mph 62% 0.00 in 1005 W/m2
13:56 80.9 °F 64.7 °F 29.77 in SW 3.0 mph 6.0 mph 58% 0.00 in 998 W/m2
14:02 81.2 °F 65.5 °F 29.76 in SW 2.0 mph 2.0 mph 59% 0.00 in 381 W/m2
14:08 80.6 °F 64.0 °F 29.76 in South 2.0 mph 3.0 mph 57% 0.00 in 278 W/m2
14:14 81.2 °F 65.5 °F 29.75 in SSE 2.0 mph 3.0 mph 59% 0.00 in 631 W/m2
14:20 80.5 °F 63.9 °F 29.76 in WSW 2.0 mph 2.0 mph 57% 0.00 in 278 W/m2
14:26 79.8 °F 64.2 °F 29.75 in NNW 3.0 mph 4.0 mph 59% 0.00 in 272 W/m2
14:32 79.8 °F 64.2 °F 29.76 in SW 2.0 mph 3.0 mph 59% 0.00 in 248 W/m2
14:38 79.5 °F 64.4 °F 29.76 in WSW 1.0 mph 3.0 mph 60% 0.00 in 308 W/m2
14:44 79.4 °F 64.8 °F 29.77 in NNE 2.0 mph 10.0 mph 61% 0.00 in 225 W/m2
14:50 73.6 °F 62.8 °F 29.77 in WNW 5.0 mph 5.0 mph 69% 0.00 in 408 W/m2
14:56 72.1 °F 62.2 °F 29.77 in NW 6.0 mph 9.0 mph 71% 0.00 in 318 W/m2
15:02 70.9 °F 62.6 °F 29.78 in NW 5.0 mph 6.0 mph 75% 0.00 in 125 W/m2
15:08 70.5 °F 62.2 °F 29.78 in NW 4.0 mph 6.0 mph 75% 0.00 in 146 W/m2
15:14 69.9 °F 62.0 °F 29.77 in NW 4.0 mph 5.0 mph 76% 0.00 in 146 W/m2
15:20 69.3 °F 61.8 °F 29.78 in NW 4.0 mph 4.0 mph 77% 0.00 in 95 W/m2
15:26 69.2 °F 62.0 °F 29.77 in NW 2.0 mph 4.0 mph 78% 0.00 in 98 W/m2
15:32 69.3 °F 62.5 °F 29.77 in NNW 2.0 mph 2.0 mph 79% 0.00 in 93 W/m2
15:38 69.5 °F 62.3 °F 29.78 in NNW 1.0 mph 2.0 mph 78% 0.00 in 118 W/m2
15:44 69.9 °F 63.1 °F 29.77 in NW 1.0 mph 1.0 mph 79% 0.00 in 186 W/m2
15:50 70.4 °F 63.2 °F 29.78 in Calm     78% 0.00 in 192 W/m2
15:58 72.4 °F 65.5 °F 29.78 in Calm   2.0 mph 79% 0.00 in 457 W/m2
16:04 74.6 °F 68.0 °F 29.77 in Calm   2.0 mph 80% 0.00 in 707 W/m2
16:10 75.3 °F 64.4 °F 29.77 in Calm     69% 0.00 in 645 W/m2
16:16 76.6 °F 63.5 °F 29.77 in NNW 1.0 mph 2.0 mph 64% 0.00 in 694 W/m2
16:22 77.1 °F 63.1 °F 29.77 in NW 2.0 mph 2.0 mph 62% 0.00 in 656 W/m2
16:28 77.6 °F 64.5 °F 29.77 in WNW 1.0 mph 4.0 mph 64% 0.00 in 656 W/m2
16:34 77.8 °F 63.7 °F 29.77 in NNW 1.0 mph 2.0 mph 62% 0.00 in 592 W/m2
16:40 77.6 °F 62.6 °F 29.77 in West 2.0 mph 2.0 mph 60% 0.00 in 582 W/m2
16:46 77.3 °F 65.1 °F 29.77 in WNW 2.0 mph 3.0 mph 66% 0.00 in 550 W/m2
16:52 77.2 °F 62.7 °F 29.77 in NNW 1.0 mph 2.0 mph 61% 0.00 in 531 W/m2
16:58 76.9 °F 62.9 °F 29.77 in NW 2.0 mph 2.0 mph 62% 0.00 in 371 W/m2
17:04 76.9 °F 62.4 °F 29.77 in NW 1.0 mph 1.0 mph 61% 0.00 in 504 W/m2
17:10 77.2 °F 63.6 °F 29.77 in NNW 1.0 mph 1.0 mph 63% 0.00 in 149 W/m2
17:16 76.3 °F 63.7 °F 29.78 in NW 1.0 mph 1.0 mph 65% 0.00 in 311 W/m2
17:22 76.7 °F 64.0 °F 29.78 in NW 1.0 mph 1.0 mph 65% 0.00 in 271 W/m2
17:28 77.0 °F 64.8 °F 29.77 in NW 1.0 mph 3.0 mph 66% 0.00 in 139 W/m2
17:34 76.7 °F 64.0 °F 29.77 in WSW 1.0 mph 3.0 mph 65% 0.00 in 102 W/m2
17:40 76.0 °F 63.8 °F 29.77 in NNW 2.0 mph 2.0 mph 66% 0.00 in 109 W/m2
17:46 75.4 °F 64.1 °F 29.77 in NW 1.0 mph 2.0 mph 68% 0.00 in 120 W/m2
17:52 75.0 °F 63.7 °F 29.77 in Calm   1.0 mph 68% 0.00 in 98 W/m2
17:58 74.8 °F 63.9 °F 29.77 in Calm   2.0 mph 69% 0.00 in 113 W/m2
18:04 74.9 °F 64.5 °F 29.77 in NW 1.0 mph 2.0 mph 70% 0.00 in 158 W/m2
18:10 75.1 °F 64.6 °F 29.77 in NNW 1.0 mph 1.0 mph 70% 0.00 in 132 W/m2
18:16 75.3 °F 64.8 °F 29.77 in NNW 1.0 mph 1.0 mph 70% 0.00 in 88 W/m2
18:22 75.0 °F 64.1 °F 29.77 in Calm     69% 0.00 in 98 W/m2
18:28 74.7 °F 64.7 °F 29.77 in Calm     71% 0.00 in 70 W/m2
18:34 74.5 °F 64.5 °F 29.77 in Calm   1.0 mph 71% 0.00 in 28 W/m2
18:40 74.2 °F 64.6 °F 29.77 in Calm   2.0 mph 72% 0.00 in 26 W/m2
18:46 73.8 °F 64.6 °F 29.77 in NNW 1.0 mph 2.0 mph 73% 0.00 in 26 W/m2
18:52 73.5 °F 64.3 °F 29.77 in Calm     73% 0.00 in 40 W/m2
18:58 73.3 °F 64.9 °F 29.78 in Calm     75% 0.00 in 23 W/m2
19:04 72.9 °F 65.6 °F 29.78 in Calm   2.0 mph 78% 1.02 in 63 W/m2
19:10 71.9 °F 65.8 °F 29.79 in NNW 1.0 mph 1.0 mph 81% 0.39 in 113 W/m2
19:16 70.9 °F 65.8 °F 29.78 in Calm   1.0 mph 84% 0.24 in 97 W/m2
19:22 70.4 °F 66.0 °F 29.78 in Calm     86% 0.08 in 46 W/m2
19:28 70.1 °F 66.0 °F 29.78 in Calm     87% 0.04 in 30 W/m2
19:34 69.6 °F 65.6 °F 29.78 in Calm   2.0 mph 87% 0.00 in 26 W/m2
19:40 69.2 °F 65.2 °F 29.78 in Calm     87% 0.00 in 21 W/m2
19:46 69.0 °F 65.3 °F 29.78 in Calm     88% 0.00 in 9 W/m2
19:52 68.8 °F 65.4 °F 29.78 in Calm     89% 0.00 in 7 W/m2
19:58 68.6 °F 65.2 °F 29.78 in Calm     89% 0.00 in 7 W/m2
20:04 68.3 °F 64.9 °F 29.78 in Calm     89% 0.00 in 0 W/m2
20:10 68.0 °F 64.6 °F 29.78 in Calm     89% 0.00 in 0 W/m2
20:16 67.9 °F 64.5 °F 29.79 in Calm     89% 0.00 in 0 W/m2
20:22 67.7 °F 64.7 °F 29.80 in Calm     90% 0.00 in 0 W/m2
20:28 67.7 °F 64.7 °F 29.80 in Calm     90% 0.00 in 0 W/m2
20:34 67.7 °F 64.7 °F 29.80 in Calm     90% 0.00 in 0 W/m2
20:40 67.6 °F 64.6 °F 29.80 in Calm     90% 0.00 in 0 W/m2
20:46 67.4 °F 64.7 °F 29.80 in Calm     91% 0.00 in 0 W/m2
20:52 67.2 °F 64.5 °F 29.81 in Calm     91% 0.00 in 0 W/m2
20:58 67.0 °F 64.3 °F 29.81 in Calm     91% 0.00 in 0 W/m2
21:04 66.8 °F 64.1 °F 29.81 in Calm     91% 0.00 in 0 W/m2
21:10 66.7 °F 64.0 °F 29.81 in Calm     91% 0.00 in 0 W/m2
21:16 66.6 °F 63.9 °F 29.80 in Calm     91% 0.00 in 0 W/m2
21:22 66.4 °F 63.7 °F 29.80 in Calm     91% 0.00 in 0 W/m2
21:28 66.2 °F 63.8 °F 29.81 in Calm     92% 0.00 in 0 W/m2
21:34 66.1 °F 63.7 °F 29.81 in Calm     92% 0.00 in 0 W/m2
21:40 66.1 °F 63.7 °F 29.81 in Calm     92% 0.00 in 0 W/m2
21:46 66.1 °F 63.7 °F 29.81 in Calm     92% 0.00 in 0 W/m2
21:52 66.1 °F 63.7 °F 29.81 in Calm     92% 0.00 in 0 W/m2
21:58 66.1 °F 63.7 °F 29.81 in Calm     92% 0.00 in 0 W/m2
22:04 66.1 °F 63.7 °F 29.81 in Calm     92% 0.00 in 0 W/m2
22:10 66.1 °F 63.7 °F 29.81 in Calm     92% 0.00 in 0 W/m2
22:16 66.0 °F 63.6 °F 29.82 in Calm     92% 0.00 in 0 W/m2
22:22 65.8 °F 63.4 °F 29.81 in Calm     92% 0.00 in 0 W/m2
22:28 65.7 °F 63.3 °F 29.81 in Calm     92% 0.00 in 0 W/m2
22:34 65.6 °F 63.2 °F 29.81 in Calm     92% 0.00 in 0 W/m2
22:40 65.5 °F 63.1 °F 29.81 in Calm     92% 0.00 in 0 W/m2
22:46 65.4 °F 63.0 °F 29.81 in Calm     92% 0.00 in 0 W/m2
22:52 65.2 °F 62.8 °F 29.81 in Calm     92% 0.00 in 0 W/m2
22:58 65.2 °F 62.8 °F 29.82 in Calm     92% 0.00 in 0 W/m2
23:04 65.3 °F 63.2 °F 29.82 in Calm   1.0 mph 93% 0.00 in 0 W/m2
23:10 65.3 °F 63.2 °F 29.82 in Calm     93% 0.00 in 0 W/m2
23:18 65.2 °F 63.1 °F 29.82 in Calm     93% 0.00 in 0 W/m2
23:24 65.2 °F 63.1 °F 29.82 in Calm     93% 0.00 in 0 W/m2
23:30 65.1 °F 63.0 °F 29.82 in Calm     93% 0.00 in 0 W/m2
23:36 64.9 °F 62.8 °F 29.82 in Calm     93% 0.00 in 0 W/m2
23:38 64.9 °F 62.8 °F 29.82 in Calm     93% 0.00 in 0 W/m2
23:40 64.9 °F 62.8 °F 29.82 in Calm     93% 0.00 in 0 W/m2
23:46 64.8 °F 62.7 °F 29.82 in Calm     93% 0.00 in 0 W/m2
23:52 64.6 °F 62.2 °F 29.82 in Calm     92% 0.00 in 0 W/m2
23:58 64.4 °F 62.0 °F 29.82 in Calm     92% 0.00 in 0 W/m2
Country Meadow, Clay, NY, USA
Compliments of Weather Underground - 2 mb